createdAt,value
2022-12-08T00:00:42.702Z,4.66
2022-12-08T00:03:10.776Z,4.59
2022-12-08T00:05:56.103Z,4.58
2022-12-08T00:08:41.107Z,4.58
2022-12-08T00:11:12.950Z,4.61
2022-12-08T00:13:41.046Z,4.58
2022-12-08T00:16:10.345Z,4.67
2022-12-08T00:18:38.094Z,4.66
2022-12-08T00:21:05.895Z,4.69
2022-12-08T00:23:33.590Z,4.72
2022-12-08T00:26:03.090Z,4.66
2022-12-08T00:28:30.766Z,4.69
2022-12-08T00:30:58.493Z,4.68
2022-12-08T00:33:28.418Z,4.65
2022-12-08T00:35:56.105Z,4.55
2022-12-08T00:38:23.852Z,4.58
2022-12-08T00:40:51.610Z,4.62
2022-12-08T00:43:19.293Z,4.66
2022-12-08T00:45:47.067Z,4.61
2022-12-08T00:48:14.879Z,4.77
2022-12-08T00:50:43.945Z,4.86
2022-12-08T00:53:11.678Z,4.78
2022-12-08T00:55:39.436Z,4.77
2022-12-08T00:58:07.138Z,4.75
2022-12-08T01:00:39.035Z,4.71
2022-12-08T01:03:06.944Z,4.67
2022-12-08T01:05:34.718Z,4.66
2022-12-08T01:08:06.119Z,4.68
2022-12-08T01:10:36.197Z,4.69
2022-12-08T01:13:03.987Z,4.82
2022-12-08T01:15:31.698Z,4.82
2022-12-08T01:17:59.426Z,4.76
2022-12-08T01:20:27.231Z,4.73
2022-12-08T01:22:55.003Z,4.75
2022-12-08T01:25:24.134Z,4.83
2022-12-08T01:27:52.975Z,4.78
2022-12-08T01:30:20.958Z,4.76
2022-12-08T01:32:48.796Z,4.72
2022-12-08T01:35:16.516Z,4.68
2022-12-08T01:37:44.265Z,4.76
2022-12-08T01:40:12.089Z,4.72
2022-12-08T01:42:41.167Z,4.73
2022-12-08T01:45:15.007Z,4.65
2022-12-08T01:47:44.662Z,4.67
2022-12-08T01:50:14.237Z,4.71
2022-12-08T01:52:43.376Z,4.74
2022-12-08T01:55:16.535Z,4.70
2022-12-08T01:57:49.732Z,4.69
2022-12-08T02:00:19.393Z,4.70
2022-12-08T02:02:51.287Z,4.76
2022-12-08T02:05:21.167Z,4.72
2022-12-08T02:07:49.622Z,4.75
2022-12-08T02:10:20.914Z,4.79
2022-12-08T02:12:51.435Z,4.80
2022-12-08T02:15:19.595Z,4.75
2022-12-08T02:17:57.574Z,4.78
2022-12-08T02:20:43.081Z,4.77
2022-12-08T02:23:16.796Z,4.86
2022-12-08T02:25:58.071Z,4.83
2022-12-08T02:28:38.499Z,4.82
2022-12-08T02:31:16.072Z,4.81
2022-12-08T02:34:04.448Z,4.82
2022-12-08T02:36:39.741Z,4.86
2022-12-08T02:39:12.066Z,4.82
2022-12-08T02:41:56.330Z,4.92
2022-12-08T02:44:39.356Z,4.92
2022-12-08T02:47:11.014Z,4.79
2022-12-08T02:49:41.818Z,4.68
2022-12-08T02:52:32.207Z,4.71
2022-12-08T02:55:05.417Z,4.70
2022-12-08T02:57:44.274Z,4.75
2022-12-08T03:00:15.792Z,4.68
2022-12-08T03:02:52.860Z,4.68
2022-12-08T03:05:31.133Z,4.68
2022-12-08T03:08:02.492Z,4.70
2022-12-08T03:10:33.734Z,4.75
2022-12-08T03:13:03.720Z,4.79
2022-12-08T03:15:32.823Z,4.73
2022-12-08T03:18:01.900Z,4.77
2022-12-08T03:20:32.135Z,4.72
2022-12-08T03:23:01.381Z,4.72
2022-12-08T03:25:34.105Z,4.65
2022-12-08T03:28:04.604Z,4.77
2022-12-08T03:30:37.714Z,4.74
2022-12-08T03:33:10.598Z,4.62
2022-12-08T03:35:40.692Z,4.71
2022-12-08T03:38:13.451Z,4.73
2022-12-08T03:40:50.892Z,4.75
2022-12-08T03:43:34.177Z,4.74
2022-12-08T03:46:06.999Z,4.80
2022-12-08T03:48:44.853Z,4.86
2022-12-08T03:51:17.988Z,4.73
2022-12-08T03:53:49.484Z,4.69
2022-12-08T03:56:23.457Z,4.65
2022-12-08T03:58:54.435Z,4.68
2022-12-08T04:01:27.444Z,4.73
2022-12-08T04:04:00.029Z,4.81
2022-12-08T04:06:44.022Z,4.73
2022-12-08T04:09:23.877Z,4.72
2022-12-08T04:11:54.157Z,4.71
2022-12-08T04:14:26.726Z,4.75
2022-12-08T04:16:54.809Z,4.71
2022-12-08T04:19:22.599Z,4.74
2022-12-08T04:21:54.580Z,4.69
2022-12-08T04:24:22.339Z,4.75
2022-12-08T04:26:54.929Z,4.70
2022-12-08T04:29:22.694Z,4.60
2022-12-08T04:31:53.536Z,4.60
2022-12-08T04:34:21.297Z,4.62
2022-12-08T04:36:57.935Z,4.69
2022-12-08T04:39:28.729Z,4.67
2022-12-08T04:41:56.468Z,4.66
2022-12-08T04:44:24.277Z,4.67
2022-12-08T04:46:54.969Z,4.65
2022-12-08T04:49:22.721Z,4.60
2022-12-08T04:51:52.747Z,4.69
2022-12-08T04:54:21.808Z,4.72
2022-12-08T04:56:56.357Z,4.63
2022-12-08T04:59:27.254Z,4.61
2022-12-08T05:01:55.166Z,4.68
2022-12-08T05:04:23.094Z,4.68
2022-12-08T05:06:50.838Z,4.63
2022-12-08T05:09:18.594Z,4.66
2022-12-08T05:11:49.278Z,4.58
2022-12-08T05:14:17.915Z,4.59
2022-12-08T05:16:45.951Z,4.59
2022-12-08T05:19:14.038Z,4.58
2022-12-08T05:21:41.837Z,4.51
2022-12-08T05:24:09.737Z,4.53
2022-12-08T05:26:37.612Z,4.46
2022-12-08T05:29:06.781Z,4.44
2022-12-08T05:31:34.843Z,4.33
2022-12-08T05:34:03.500Z,4.34
2022-12-08T05:36:31.500Z,4.41
2022-12-08T05:38:59.624Z,4.41
2022-12-08T05:41:27.371Z,4.41
2022-12-08T05:43:57.759Z,4.43
2022-12-08T05:46:28.016Z,4.46
2022-12-08T05:48:55.768Z,4.49
2022-12-08T05:51:28.760Z,4.49
2022-12-08T05:53:58.884Z,4.47
2022-12-08T05:56:26.642Z,4.51
2022-12-08T05:58:54.365Z,4.46
2022-12-08T06:01:23.113Z,4.48
2022-12-08T06:03:52.194Z,4.49
2022-12-08T06:06:24.563Z,4.47
2022-12-08T06:08:53.020Z,4.45
2022-12-08T06:11:21.492Z,4.39
2022-12-08T06:13:49.834Z,4.35
2022-12-08T06:16:18.246Z,4.30
2022-12-08T06:18:45.997Z,4.28
2022-12-08T06:21:18.985Z,4.24
2022-12-08T06:23:49.118Z,4.25
2022-12-08T06:26:17.211Z,4.25
2022-12-08T06:28:45.464Z,4.23
2022-12-08T06:31:15.074Z,4.19
2022-12-08T06:33:43.007Z,4.19
2022-12-08T06:36:12.616Z,4.18
2022-12-08T06:38:43.879Z,4.19
2022-12-08T06:41:12.409Z,4.16
2022-12-08T06:43:40.951Z,4.20
2022-12-08T06:46:09.535Z,4.34
2022-12-08T06:48:37.311Z,4.41
2022-12-08T06:51:09.168Z,4.44
2022-12-08T06:53:37.000Z,4.42
2022-12-08T06:56:06.957Z,4.58
2022-12-08T06:58:34.691Z,4.68
2022-12-08T07:01:05.256Z,4.64
2022-12-08T07:03:33.119Z,4.63
2022-12-08T07:06:04.128Z,4.83
2022-12-08T07:08:32.560Z,4.80
2022-12-08T07:11:00.864Z,4.89
2022-12-08T07:13:29.974Z,4.88
2022-12-08T07:15:57.763Z,4.98
2022-12-08T07:18:25.546Z,5.05
2022-12-08T07:20:53.225Z,5.14
2022-12-08T07:23:21.502Z,5.03
2022-12-08T07:25:51.889Z,5.15
2022-12-08T07:28:21.971Z,5.25
2022-12-08T07:30:51.069Z,5.25
2022-12-08T07:33:18.866Z,5.25
2022-12-08T07:35:57.339Z,5.35
2022-12-08T07:38:34.709Z,5.39
2022-12-08T07:41:05.285Z,5.47
2022-12-08T07:43:33.115Z,5.33
2022-12-08T07:46:02.231Z,5.37
2022-12-08T07:48:33.818Z,5.55
2022-12-08T07:51:04.658Z,5.62
2022-12-08T07:53:35.510Z,5.76
2022-12-08T07:56:06.549Z,5.85
2022-12-08T07:58:34.354Z,5.78
2022-12-08T08:01:08.356Z,5.70
2022-12-08T08:03:50.623Z,5.90
2022-12-08T08:06:18.480Z,6.05
2022-12-08T08:08:50.150Z,6.10
2022-12-08T08:11:21.868Z,6.06
2022-12-08T08:13:49.843Z,6.38
2022-12-08T08:16:19.635Z,6.78
2022-12-08T08:18:48.122Z,7.30
2022-12-08T08:24:08.719Z,8.20
2022-12-08T08:26:36.991Z,8.62
2022-12-08T08:29:04.741Z,8.76
2022-12-08T08:31:33.935Z,8.97
2022-12-08T08:34:07.184Z,8.93
2022-12-08T08:36:45.263Z,8.45
2022-12-08T08:39:17.795Z,8.44
2022-12-08T08:41:47.536Z,8.18
2022-12-08T08:44:16.015Z,8.08
2022-12-08T08:46:50.284Z,7.93
2022-12-08T08:49:24.307Z,8.05
2022-12-08T08:51:56.185Z,8.20
2022-12-08T08:54:29.955Z,8.05
2022-12-08T08:57:01.599Z,7.99
2022-12-08T08:59:35.211Z,8.16
2022-12-08T09:02:05.591Z,8.12
2022-12-08T09:04:38.081Z,8.30
2022-12-08T09:07:08.293Z,8.35
2022-12-08T09:09:36.073Z,8.28
2022-12-08T09:12:06.353Z,8.15
2022-12-08T09:14:36.860Z,8.37
2022-12-08T09:17:12.471Z,8.05
2022-12-08T09:19:42.650Z,8.24
2022-12-08T09:22:10.408Z,8.11
2022-12-08T09:24:41.874Z,8.43
2022-12-08T09:27:11.490Z,8.48
2022-12-08T09:29:40.779Z,8.36
2022-12-08T09:32:12.835Z,8.65
2022-12-08T09:34:40.596Z,8.97
2022-12-08T09:37:18.845Z,9.42
2022-12-08T09:39:47.648Z,9.85
2022-12-08T09:42:30.423Z,10.48
2022-12-08T09:45:03.665Z,11.07
2022-12-08T09:47:36.241Z,11.07
2022-12-08T09:50:08.481Z,11.05
2022-12-08T09:52:39.334Z,11.45
2022-12-08T09:55:12.705Z,11.63
2022-12-08T09:57:40.502Z,11.37
2022-12-08T10:00:08.994Z,11.13
2022-12-08T10:02:38.105Z,10.94
2022-12-08T10:05:06.296Z,10.37
2022-12-08T10:07:39.108Z,10.22
2022-12-08T10:10:13.510Z,10.13
2022-12-08T10:12:43.426Z,9.91
2022-12-08T10:15:20.461Z,9.99
2022-12-08T10:17:51.223Z,9.71
2022-12-08T10:20:20.116Z,9.83
2022-12-08T10:22:51.234Z,9.79
2022-12-08T10:25:20.385Z,9.61
2022-12-08T10:27:50.340Z,9.42
2022-12-08T10:30:19.880Z,9.06
2022-12-08T10:32:50.275Z,8.88
2022-12-08T10:35:18.720Z,8.85
2022-12-08T10:37:55.953Z,8.89
2022-12-08T10:40:23.717Z,8.62
2022-12-08T10:42:52.550Z,8.74
2022-12-08T10:45:23.544Z,8.49
2022-12-08T10:47:59.010Z,8.42
2022-12-08T10:50:29.950Z,8.23
2022-12-08T10:52:58.566Z,8.32
2022-12-08T10:55:26.687Z,8.22
2022-12-08T10:57:54.504Z,8.16
2022-12-08T11:00:23.225Z,8.15
2022-12-08T11:02:55.328Z,8.17
2022-12-08T11:05:27.197Z,8.03
2022-12-08T11:07:56.086Z,7.97
2022-12-08T11:10:30.087Z,7.99
2022-12-08T11:12:59.889Z,8.08
2022-12-08T11:15:32.872Z,7.80
2022-12-08T11:18:03.104Z,7.76
2022-12-08T11:20:38.585Z,7.74
2022-12-08T11:23:18.783Z,7.75
2022-12-08T11:25:46.515Z,7.66
2022-12-08T11:28:14.274Z,7.59
2022-12-08T11:30:44.865Z,7.68
2022-12-08T11:33:15.655Z,7.60
2022-12-08T11:35:46.009Z,7.52
2022-12-08T11:38:21.736Z,7.59
2022-12-08T11:40:51.882Z,7.47
2022-12-08T11:43:22.270Z,7.47
2022-12-08T11:45:51.066Z,7.48
2022-12-08T11:48:20.250Z,7.40
2022-12-08T11:50:51.806Z,7.45
2022-12-08T11:53:24.652Z,7.32
2022-12-08T11:55:56.172Z,7.33
2022-12-08T11:58:27.947Z,7.34
2022-12-08T12:00:55.756Z,7.21
2022-12-08T12:03:29.668Z,7.36
2022-12-08T12:06:37.723Z,7.45
2022-12-08T12:09:03.060Z,7.57
2022-12-08T12:11:52.300Z,7.49
2022-12-08T12:14:29.964Z,7.36
2022-12-08T12:17:04.964Z,7.42
2022-12-08T12:19:35.427Z,7.27
2022-12-08T12:22:08.563Z,7.27
2022-12-08T12:24:38.787Z,7.34
2022-12-08T12:27:08.894Z,7.28
2022-12-08T12:29:38.573Z,7.23
2022-12-08T12:32:07.866Z,7.26
2022-12-08T12:34:37.502Z,7.28
2022-12-08T12:37:08.920Z,7.29
2022-12-08T12:39:47.579Z,7.38
2022-12-08T12:42:30.198Z,7.37
2022-12-08T12:45:12.278Z,7.28
2022-12-08T12:47:54.081Z,7.27
2022-12-08T12:50:43.348Z,7.30
2022-12-08T12:53:25.964Z,7.24
2022-12-08T12:55:56.263Z,7.19
2022-12-08T12:58:35.173Z,7.23
2022-12-08T13:01:21.600Z,7.32
2022-12-08T13:03:50.805Z,7.24
2022-12-08T13:06:23.827Z,7.27
2022-12-08T13:08:53.073Z,7.33
2022-12-08T13:11:22.608Z,7.27
2022-12-08T13:13:57.204Z,7.28
2022-12-08T13:16:26.071Z,7.28
2022-12-08T13:18:57.595Z,7.26
2022-12-08T13:21:32.291Z,7.27
2022-12-08T13:24:17.337Z,7.27
2022-12-08T13:26:47.109Z,7.29
2022-12-08T13:29:19.099Z,7.30
2022-12-08T13:31:50.948Z,7.28
2022-12-08T13:34:37.365Z,7.25
2022-12-08T13:37:13.575Z,7.23
2022-12-08T13:39:44.419Z,7.22
2022-12-08T13:42:19.866Z,7.26
2022-12-08T13:45:24.225Z,7.28
2022-12-08T13:47:59.631Z,7.28
2022-12-08T13:52:37.000Z,7.28
2022-12-08T13:59:09.192Z,7.32
2022-12-08T14:01:43.220Z,7.35
2022-12-08T14:04:47.513Z,7.37
2022-12-08T14:07:04.075Z,7.31
2022-12-08T14:09:34.697Z,7.31
2022-12-08T14:12:04.472Z,7.38
2022-12-08T14:15:04.857Z,7.38
2022-12-08T14:17:23.317Z,7.41
2022-12-08T14:19:55.152Z,7.39
2022-12-08T14:22:23.184Z,7.36
2022-12-08T14:24:51.983Z,7.37
2022-12-08T14:27:20.552Z,7.40
2022-12-08T14:29:51.101Z,7.39
2022-12-08T14:32:24.497Z,7.38
2022-12-08T14:34:53.870Z,7.42
2022-12-08T14:37:22.093Z,7.43
2022-12-08T14:39:50.306Z,7.41
2022-12-08T14:42:22.398Z,7.38
2022-12-08T14:44:56.673Z,7.35
2022-12-08T14:47:29.451Z,7.39
2022-12-08T14:49:57.215Z,7.39
2022-12-08T14:52:25.691Z,7.41
2022-12-08T14:54:54.193Z,7.36
2022-12-08T14:57:22.496Z,7.38
2022-12-08T14:59:51.750Z,7.35
2022-12-08T15:02:26.480Z,7.43
2022-12-08T15:04:59.132Z,7.40
2022-12-08T15:07:28.768Z,7.38
2022-12-08T15:10:10.929Z,7.36
2022-12-08T15:12:38.725Z,7.31
2022-12-08T15:15:17.580Z,7.33
2022-12-08T15:17:46.166Z,7.32
2022-12-08T15:20:33.225Z,7.32
2022-12-08T15:23:03.251Z,7.29
2022-12-08T15:25:31.198Z,7.28
2022-12-08T15:27:59.028Z,7.32
2022-12-08T15:30:28.667Z,7.32
2022-12-08T15:32:56.525Z,7.28
2022-12-08T15:35:24.348Z,7.27
2022-12-08T15:37:54.357Z,7.32
2022-12-08T15:40:22.950Z,7.30
2022-12-08T15:42:50.698Z,7.26
2022-12-08T15:45:18.572Z,7.26
2022-12-08T15:47:47.895Z,7.22
2022-12-08T15:50:16.427Z,7.23
2022-12-08T15:52:44.384Z,7.27
2022-12-08T15:55:15.795Z,7.29
2022-12-08T15:58:44.644Z,7.28
2022-12-08T16:07:12.907Z,7.52
2022-12-08T16:09:13.072Z,7.54
2022-12-08T16:12:07.762Z,7.54
2022-12-08T16:17:25.117Z,7.61
2022-12-08T16:19:54.573Z,7.57
2022-12-08T16:25:21.843Z,7.56
2022-12-08T16:28:29.281Z,7.56
2022-12-08T16:30:44.920Z,7.54
2022-12-08T16:33:28.570Z,7.51
2022-12-08T16:36:08.555Z,7.52
2022-12-08T16:38:39.107Z,7.51
2022-12-08T16:41:24.610Z,7.52
2022-12-08T16:43:53.053Z,7.50
2022-12-08T16:46:23.833Z,7.54
2022-12-08T16:48:51.649Z,7.54
2022-12-08T16:51:26.557Z,7.51
2022-12-08T16:53:54.968Z,7.47
2022-12-08T16:56:28.782Z,7.41
2022-12-08T16:58:59.905Z,7.33
2022-12-08T17:01:27.743Z,7.35
2022-12-08T17:04:29.054Z,7.32
2022-12-08T17:06:44.739Z,7.32
2022-12-08T17:09:12.413Z,7.25
2022-12-08T17:11:43.378Z,7.24
2022-12-08T17:14:11.535Z,7.21
2022-12-08T17:16:39.452Z,7.17
2022-12-08T17:19:07.332Z,7.09
2022-12-08T17:21:35.089Z,7.10
2022-12-08T17:24:04.227Z,7.07
2022-12-08T17:26:32.041Z,7.01
2022-12-08T17:29:01.194Z,6.98
2022-12-08T17:31:30.546Z,7.01
2022-12-08T17:33:59.109Z,6.94
2022-12-08T17:36:26.849Z,6.95
2022-12-08T17:38:54.659Z,7.01
2022-12-08T17:41:23.794Z,7.03
2022-12-08T17:43:51.497Z,6.97
2022-12-08T17:46:19.753Z,7.00
2022-12-08T17:48:47.606Z,6.92
2022-12-08T17:51:15.542Z,6.94
2022-12-08T17:53:43.446Z,6.92
2022-12-08T17:56:15.364Z,6.87
2022-12-08T17:58:51.303Z,6.89
2022-12-08T18:01:22.535Z,6.89
2022-12-08T18:03:50.423Z,6.90
2022-12-08T18:06:21.219Z,6.89
2022-12-08T18:08:49.363Z,6.80
2022-12-08T18:11:17.730Z,6.78
2022-12-08T18:13:47.367Z,6.74
2022-12-08T18:16:15.182Z,6.66
2022-12-08T18:18:43.364Z,6.70
2022-12-08T18:21:11.128Z,6.73
2022-12-08T18:23:39.226Z,6.65
2022-12-08T18:26:07.149Z,6.67
2022-12-08T18:28:35.243Z,6.68
2022-12-08T18:31:08.486Z,6.74
2022-12-08T18:33:36.373Z,6.74
2022-12-08T18:36:07.669Z,6.72
2022-12-08T18:38:35.378Z,6.74
2022-12-08T18:41:05.302Z,6.76
2022-12-08T18:43:33.357Z,6.81
2022-12-08T18:46:07.695Z,6.79
2022-12-08T18:48:35.756Z,6.81
2022-12-08T18:51:03.490Z,6.85
2022-12-08T18:53:31.454Z,6.91
2022-12-08T18:55:59.174Z,6.63
2022-12-08T18:58:26.908Z,6.86
2022-12-08T19:00:54.653Z,6.85
2022-12-08T19:03:23.851Z,6.87
2022-12-08T19:05:51.635Z,6.84
2022-12-08T19:08:19.447Z,6.90
2022-12-08T19:10:47.246Z,6.81
2022-12-08T19:13:14.997Z,6.76
2022-12-08T19:15:42.760Z,6.70
2022-12-08T19:18:10.829Z,6.73
2022-12-08T19:20:39.944Z,6.78
2022-12-08T19:23:07.734Z,6.77
2022-12-08T19:25:35.457Z,6.87
2022-12-08T19:28:03.203Z,6.85
2022-12-08T19:30:32.292Z,6.73
2022-12-08T19:33:00.026Z,6.72
2022-12-08T19:35:27.766Z,6.70
2022-12-08T19:37:56.947Z,6.69
2022-12-08T19:40:42.426Z,6.66
2022-12-08T19:43:32.353Z,6.66
2022-12-08T19:46:00.195Z,6.59
2022-12-08T19:48:27.985Z,6.57
2022-12-08T19:50:55.707Z,6.62
2022-12-08T19:53:25.307Z,6.63
2022-12-08T19:55:53.274Z,6.60
2022-12-08T19:58:21.049Z,6.64
2022-12-08T20:00:48.879Z,6.72
2022-12-08T20:03:17.041Z,6.66
2022-12-08T20:05:45.523Z,6.69
2022-12-08T20:08:16.718Z,6.69
2022-12-08T20:10:46.754Z,6.73
2022-12-08T20:13:31.961Z,6.73
2022-12-08T20:15:59.856Z,6.69
2022-12-08T20:18:28.694Z,6.75
2022-12-08T20:20:57.020Z,6.79
2022-12-08T20:23:24.831Z,6.81
2022-12-08T20:25:54.047Z,6.82
2022-12-08T20:28:22.534Z,6.83
2022-12-08T20:30:50.436Z,6.79
2022-12-08T20:33:19.051Z,6.84
2022-12-08T20:35:47.302Z,6.83
2022-12-08T20:38:15.077Z,6.83
2022-12-08T20:40:43.847Z,6.87
2022-12-08T20:43:13.021Z,6.85
2022-12-08T20:45:40.767Z,6.82
2022-12-08T20:48:08.543Z,6.84
2022-12-08T20:50:36.468Z,6.83
2022-12-08T20:53:04.486Z,6.83
2022-12-08T20:55:32.360Z,6.88
2022-12-08T20:58:00.237Z,6.79
2022-12-08T21:00:29.406Z,6.94
2022-12-08T21:02:57.605Z,6.92
2022-12-08T21:05:25.716Z,6.88
2022-12-08T21:07:53.801Z,6.84
2022-12-08T21:10:21.840Z,6.81
2022-12-08T21:12:49.750Z,6.81
2022-12-08T21:15:17.700Z,6.77
2022-12-08T21:17:47.046Z,6.81
2022-12-08T21:20:15.204Z,6.83
2022-12-08T21:22:43.024Z,6.75
2022-12-08T21:25:10.886Z,6.79
2022-12-08T21:27:39.096Z,6.80
2022-12-08T21:30:08.197Z,6.81
2022-12-08T21:32:36.275Z,6.79
2022-12-08T21:35:05.975Z,6.84
2022-12-08T21:38:10.057Z,6.95
2022-12-08T21:40:38.386Z,6.89
2022-12-08T21:43:06.398Z,6.91
2022-12-08T21:45:35.320Z,6.92
2022-12-08T21:48:11.031Z,6.92
2022-12-08T21:50:39.698Z,6.91
2022-12-08T21:53:09.090Z,6.90
2022-12-08T21:55:37.220Z,6.87
2022-12-08T21:58:05.629Z,6.87
2022-12-08T22:00:33.833Z,6.86
2022-12-08T22:03:02.106Z,6.99
2022-12-08T22:05:30.250Z,7.06
2022-12-08T22:07:58.526Z,7.07
2022-12-08T22:10:28.039Z,7.17
2022-12-08T22:12:56.016Z,7.30
2022-12-08T22:15:24.054Z,7.32
2022-12-08T22:17:52.302Z,7.35
2022-12-08T22:20:20.698Z,7.27
2022-12-08T22:22:49.197Z,7.23
2022-12-08T22:25:17.319Z,7.11
2022-12-08T22:27:47.951Z,7.03
2022-12-08T22:30:16.303Z,6.96
2022-12-08T22:32:44.478Z,7.04
2022-12-08T22:35:12.713Z,6.95
2022-12-08T22:37:40.856Z,6.79
2022-12-08T22:40:10.071Z,6.71
2022-12-08T22:42:38.306Z,6.63
2022-12-08T22:45:09.349Z,6.58
2022-12-08T22:47:37.392Z,6.50
2022-12-08T22:50:07.103Z,6.41
2022-12-08T22:52:35.651Z,6.46
2022-12-08T22:55:03.687Z,6.47
2022-12-08T22:57:31.893Z,6.48
2022-12-08T22:59:59.855Z,6.47
2022-12-08T23:02:29.328Z,6.45
2022-12-08T23:04:57.936Z,6.52
2022-12-08T23:07:26.037Z,6.52
2022-12-08T23:09:54.127Z,6.48
2022-12-08T23:12:22.411Z,6.46
2022-12-08T23:14:50.508Z,6.42
2022-12-08T23:17:18.847Z,6.40
2022-12-08T23:19:48.245Z,6.41
2022-12-08T23:22:16.388Z,6.44
2022-12-08T23:24:44.627Z,6.34
2022-12-08T23:27:12.682Z,6.44
2022-12-08T23:29:40.809Z,6.43
2022-12-08T23:32:09.032Z,6.37
2022-12-08T23:34:37.049Z,6.40
2022-12-08T23:37:06.407Z,6.41
2022-12-08T23:39:34.775Z,6.38
2022-12-08T23:42:02.820Z,6.44
2022-12-08T23:44:31.481Z,6.41
2022-12-08T23:46:59.563Z,6.27
2022-12-08T23:49:28.073Z,6.26
2022-12-08T23:51:56.226Z,6.35
2022-12-08T23:54:25.799Z,6.30
2022-12-08T23:56:54.039Z,6.37
2022-12-08T23:59:22.228Z,6.30
